Wednesday, April 25, 2018, 5:06 AM EDT
Back to Local

KPVC, Provincetown, Provincetown Municipal Airport

Location: Provincetown, MA, United States Lat: 42.067
Local Time: 5:06 AM EDT ( 9:06 GMT) Lon: -70.217
Time Zone: US/Eastern Elev: 6 ft

Show me the last for .
Show Decoded

2018-04-25 03:56 METAR KPVC 250756Z AUTO 16007KT 10SM SCT070 11/07 A3019 RMK AO2 SLP222 T01060072
                 =
2018-04-25 02:56 METAR KPVC 250656Z AUTO 16006KT 10SM FEW070 10/07 A3021 RMK AO2 SLP229 T01000072
                 =
2018-04-25 01:56 METAR KPVC 250556Z AUTO 16007KT 10SM CLR 09/06 A3024 RMK AO2 SLP238 T00940061
                 10094 20089 58020 =
2018-04-25 00:56 METAR KPVC 250456Z AUTO 17005KT 10SM SCT060 09/03 A3027 RMK AO2 SLP249 T00890033
                 401560050 =
2018-04-24 23:56 METAR KPVC 250356Z AUTO 17010KT 10SM CLR 09/01 A3028 RMK AO2 SLP254 T00890006 =
2018-04-24 22:56 METAR KPVC 250256Z AUTO 17008KT 10SM CLR 09/01 A3030 RMK AO2 SLP258 T00940006
                 58002 =
2018-04-24 21:56 METAR KPVC 250156Z AUTO 18009KT 10SM SCT060 09/04 A3032 RMK AO2 SLP265 T00940044
                 =
2018-04-24 20:56 METAR KPVC 250056Z AUTO 18011G18KT 10SM CLR 09/05 A3032 RMK AO2 SLP266 T00940050
                 =
2018-04-24 19:56 METAR KPVC 242356Z AUTO 18010KT 10SM CLR 10/04 A3030 RMK AO2 SLP261 T01000044
                 10150 20094 58008 =
2018-04-24 18:56 METAR KPVC 242256Z AUTO 18011KT 10SM CLR 11/02 A3031 RMK AO2 SLP263 T01060022 =
2018-04-24 17:56 METAR KPVC 242156Z AUTO 19014G19KT 10SM CLR 12/M01 A3032 RMK AO2 SLP268
                 T01171006 =
2018-04-24 16:56 METAR KPVC 242056Z AUTO 19012G20KT 10SM CLR 13/02 A3033 RMK AO2 SLP269 T01280017
                 56017 =
2018-04-24 15:56 METAR KPVC 241956Z AUTO 19013G21KT 10SM CLR 13/05 A3034 RMK AO2 SLP273 T01330050
                 =
2018-04-24 14:56 METAR KPVC 241856Z AUTO 20012G18KT 10SM CLR 14/06 A3036 RMK AO2 SLP279 T01440061
                 =
2018-04-24 13:56 METAR KPVC 241756Z AUTO 20016G19KT 10SM CLR 15/06 A3038 RMK AO2 SLP286 T01500061
                 10156 20083 56019 =
2018-04-24 12:56 METAR KPVC 241656Z AUTO 19014G19KT 10SM CLR 16/04 A3038 RMK AO2 SLP288 T01560039
                 =
2018-04-24 11:56 METAR KPVC 241556Z AUTO 19013G19KT 10SM CLR 14/03 A3041 RMK AO2 SLP297 T01390033
                 =
2018-04-24 09:56 METAR KPVC 241356Z AUTO 20011KT 10SM CLR 12/04 A3044 RMK AO2 SLP308 T01170039 =
2018-04-24 08:56 METAR KPVC 241256Z AUTO 20008KT 10SM CLR 09/04 A3045 RMK AO2 SLP310 T00940039 =
2018-04-24 07:56 METAR KPVC 241156Z AUTO 20010KT 10SM CLR 08/03 A3045 RMK AO2 SLP310 T00830033
                 10083 20050 53005 =
2018-04-24 06:56 METAR KPVC 241056Z AUTO 20009KT 10SM CLR 07/03 A3044 RMK AO2 SLP307 T00670033 =
2018-04-24 05:56 METAR KPVC 240956Z AUTO 19007KT 10SM CLR 06/02 A3043 RMK AO2 SLP303 T00560022 =

Support USWX by starting your Amazon purchase here.